Time;durP1;ratioP1;P1;durP2;ratioP2;P2;SDS_P1;SDS_P2;PMS_P1;PMS_P2;Temp;Humidity;BMP_temperature;BMP_pressure;BME280_temperature;BME280_humidity;BME280_pressure;Samples;Min_cycle;Max_cycle;Signal;HPM_P1;HPM_P2
2022/06/29 00:00:15;;;;;;;7.75;2.10;;;;;;;;;;5085462;28;20058;-60
2022/06/29 00:02:43;;;;;;;8.68;2.60;;;;;;;;;;5082862;28;20116;-61
2022/06/29 00:05:11;;;;;;;6.68;2.42;;;;;;;;;;5083364;28;20040;-61
2022/06/29 00:07:38;;;;;;;9.73;2.30;;;;;;;;;;5082193;28;20066;-61
2022/06/29 00:10:05;;;;;;;4.55;2.00;;;;;;;;;;5084578;28;20048;-61
2022/06/29 00:12:31;;;;;;;6.80;2.22;;;;;;;;;;5081893;28;20040;-61
2022/06/29 00:15:02;;;;;;;5.82;2.25;;;;;;;;;;5083352;28;20054;-63
2022/06/29 00:17:32;;;;;;;5.47;2.20;;;;;;;;;;5081520;28;20548;-63
2022/06/29 00:20:00;;;;;;;5.82;2.10;;;;;;;;;;5083265;28;20526;-62
2022/06/29 00:22:27;;;;;;;6.20;2.80;;;;;;;;;;5082683;28;20143;-61
2022/06/29 00:24:54;;;;;;;7.13;2.40;;;;;;;;;;5082580;28;20389;-62
2022/06/29 00:27:21;;;;;;;8.25;3.13;;;;;;;;;;5063669;28;20144;-59
2022/06/29 00:29:47;;;;;;;5.53;2.05;;;;;;;;;;5083794;28;20101;-60
2022/06/29 00:32:14;;;;;;;6.50;2.60;;;;;;;;;;5083486;27;20040;-60
2022/06/29 00:34:41;;;;;;;7.32;2.28;;;;;;;;;;5080455;27;20660;-60
2022/06/29 00:37:08;;;;;;;6.57;2.38;;;;;;;;;;5083465;28;20040;-60
2022/06/29 00:39:34;;;;;;;9.43;2.35;;;;;;;;;;5081901;28;20055;-60
2022/06/29 00:42:01;;;;;;;7.45;2.25;;;;;;;;;;5081640;28;20085;-61
2022/06/29 00:44:28;;;;;;;6.15;2.72;;;;;;;;;;5080712;28;20132;-59
2022/06/29 00:46:57;;;;;;;7.93;2.15;;;;;;;;;;5080922;28;20036;-61
2022/06/29 00:49:25;;;;;;;5.50;2.55;;;;;;;;;;5081911;28;20040;-62
2022/06/29 00:52:02;;;;;;;11.00;2.88;;;;;;;;;;5081658;28;20047;-60
2022/06/29 00:54:32;;;;;;;7.18;2.33;;;;;;;;;;5080917;28;21706;-61
2022/06/29 00:57:00;;;;;;;9.50;2.45;;;;;;;;;;5081153;28;20808;-62
2022/06/29 00:59:27;;;;;;;9.90;3.63;;;;;;;;;;5079790;28;20055;-64
2022/06/29 01:01:53;;;;;;;8.55;2.47;;;;;;;;;;5080044;28;20040;-65
2022/06/29 01:04:20;;;;;;;4.65;2.55;;;;;;;;;;5081589;28;20143;-64
2022/06/29 01:06:47;;;;;;;6.95;3.58;;;;;;;;;;5081418;27;20047;-64
2022/06/29 01:09:13;;;;;;;8.55;3.17;;;;;;;;;;5083543;28;20146;-63
2022/06/29 01:11:40;;;;;;;7.18;2.63;;;;;;;;;;5081000;28;20028;-63
2022/06/29 01:14:06;;;;;;;6.15;2.65;;;;;;;;;;5082153;28;20567;-63
2022/06/29 01:16:33;;;;;;;8.23;2.97;;;;;;;;;;5081467;28;20484;-62
2022/06/29 01:19:00;;;;;;;8.27;2.70;;;;;;;;;;5083496;28;20064;-61
2022/06/29 01:21:28;;;;;;;9.20;3.45;;;;;;;;;;5080644;28;20574;-61
2022/06/29 01:23:54;;;;;;;9.23;3.40;;;;;;;;;;5081219;28;20067;-61
2022/06/29 01:26:21;;;;;;;7.88;3.20;;;;;;;;;;5074742;28;20036;-62
2022/06/29 01:28:48;;;;;;;7.97;3.40;;;;;;;;;;5101847;28;20140;-62
2022/06/29 01:31:15;;;;;;;6.90;3.50;;;;;;;;;;5101714;28;20047;-62
2022/06/29 01:33:42;;;;;;;11.07;5.55;;;;;;;;;;5101339;28;20532;-59
2022/06/29 01:36:09;;;;;;;10.15;3.75;;;;;;;;;;5087017;28;20365;-62
2022/06/29 01:38:36;;;;;;;7.72;3.20;;;;;;;;;;5090323;28;20044;-59
2022/06/29 01:41:04;;;;;;;7.03;2.83;;;;;;;;;;5083008;28;20047;-60
2022/06/29 01:43:31;;;;;;;7.68;3.90;;;;;;;;;;5081452;27;20028;-62
2022/06/29 01:45:59;;;;;;;9.50;3.08;;;;;;;;;;5082550;28;20039;-62
2022/06/29 01:48:25;;;;;;;8.90;2.92;;;;;;;;;;5083110;28;20155;-62
2022/06/29 01:50:52;;;;;;;5.53;2.35;;;;;;;;;;5082211;28;20036;-63
2022/06/29 01:53:19;;;;;;;6.28;2.40;;;;;;;;;;5081557;28;20059;-61
2022/06/29 01:55:46;;;;;;;7.25;2.63;;;;;;;;;;5081375;28;20542;-61
2022/06/29 01:58:13;;;;;;;5.95;2.78;;;;;;;;;;5082911;27;20372;-61
2022/06/29 02:00:40;;;;;;;5.30;2.88;;;;;;;;;;5081688;28;20067;-63
2022/06/29 02:03:06;;;;;;;6.70;3.65;;;;;;;;;;5082749;27;20524;-64
2022/06/29 02:05:33;;;;;;;7.13;2.88;;;;;;;;;;5081472;28;20063;-64
2022/06/29 02:08:00;;;;;;;6.32;2.67;;;;;;;;;;5082365;28;20067;-64
2022/06/29 02:10:27;;;;;;;6.18;2.97;;;;;;;;;;5084764;28;20046;-63
2022/06/29 02:12:53;;;;;;;5.43;2.35;;;;;;;;;;5084762;28;20039;-64
2022/06/29 02:15:21;;;;;;;8.02;2.65;;;;;;;;;;5094538;27;20047;-63
2022/06/29 02:17:47;;;;;;;4.63;2.42;;;;;;;;;;5085970;28;20042;-64
2022/06/29 02:20:14;;;;;;;4.47;2.35;;;;;;;;;;5087591;28;20101;-64
2022/06/29 02:22:41;;;;;;;6.25;2.60;;;;;;;;;;5102240;27;20046;-64
2022/06/29 02:25:08;;;;;;;7.03;2.55;;;;;;;;;;5091708;27;20036;-64
2022/06/29 02:27:35;;;;;;;6.07;2.38;;;;;;;;;;5087747;27;20047;-64
2022/06/29 02:30:01;;;;;;;6.00;2.25;;;;;;;;;;5094789;27;20288;-65
2022/06/29 02:35:13;;;;;;;6.45;2.65;;;;;;;;;;5104629;27;20050;-64
2022/06/29 02:37:39;;;;;;;5.72;2.50;;;;;;;;;;5105995;27;20482;-64
2022/06/29 02:40:06;;;;;;;10.88;2.97;;;;;;;;;;5106924;27;20043;-64
2022/06/29 02:42:33;;;;;;;5.18;2.53;;;;;;;;;;5103692;27;20467;-64
2022/06/29 02:45:00;;;;;;;6.85;2.55;;;;;;;;;;5104923;27;20759;-64
2022/06/29 02:47:27;;;;;;;7.43;2.70;;;;;;;;;;5104562;27;20125;-65
2022/06/29 02:49:54;;;;;;;7.35;2.65;;;;;;;;;;5081448;28;20412;-65
2022/06/29 02:52:21;;;;;;;6.78;2.65;;;;;;;;;;5070392;28;20426;-64
2022/06/29 02:54:47;;;;;;;8.02;3.53;;;;;;;;;;5076427;27;20032;-64
2022/06/29 02:57:14;;;;;;;9.38;3.30;;;;;;;;;;5085204;27;20840;-65
2022/06/29 02:59:41;;;;;;;10.02;3.22;;;;;;;;;;5079650;28;20051;-64
2022/06/29 03:02:07;;;;;;;10.57;2.85;;;;;;;;;;5084537;27;20706;-64
2022/06/29 03:04:34;;;;;;;7.78;3.35;;;;;;;;;;5083307;28;20086;-64
2022/06/29 03:07:01;;;;;;;7.05;3.20;;;;;;;;;;5084877;28;20047;-65
2022/06/29 03:09:28;;;;;;;8.05;3.80;;;;;;;;;;5084111;27;20916;-64
2022/06/29 03:11:54;;;;;;;10.65;3.15;;;;;;;;;;5083950;27;20044;-65
2022/06/29 03:14:21;;;;;;;10.35;3.88;;;;;;;;;;5084133;28;20040;-65
2022/06/29 03:16:48;;;;;;;8.55;3.58;;;;;;;;;;5083460;28;20535;-64
2022/06/29 03:19:14;;;;;;;7.72;3.05;;;;;;;;;;5084471;28;20039;-64
2022/06/29 03:21:41;;;;;;;9.32;3.22;;;;;;;;;;5081980;27;20582;-64
2022/06/29 03:24:08;;;;;;;6.05;3.20;;;;;;;;;;5083480;27;20058;-64
2022/06/29 03:26:34;;;;;;;8.82;3.25;;;;;;;;;;5083052;27;20130;-64
2022/06/29 03:29:01;;;;;;;8.10;2.83;;;;;;;;;;5083695;27;20409;-64
2022/06/29 03:31:27;;;;;;;7.75;3.28;;;;;;;;;;5083938;28;20040;-64
2022/06/29 03:33:54;;;;;;;7.25;3.17;;;;;;;;;;5083803;28;20120;-62
2022/06/29 03:36:21;;;;;;;7.38;4.10;;;;;;;;;;5084737;28;20503;-64
2022/06/29 03:38:47;;;;;;;8.02;3.88;;;;;;;;;;5081861;28;20040;-63
2022/06/29 03:41:14;;;;;;;7.18;3.20;;;;;;;;;;5063951;28;20555;-64
2022/06/29 03:43:41;;;;;;;7.35;3.10;;;;;;;;;;5082362;28;20093;-64
2022/06/29 03:46:07;;;;;;;7.55;2.70;;;;;;;;;;5084301;28;20143;-63
2022/06/29 03:48:34;;;;;;;6.93;3.08;;;;;;;;;;5083174;28;20128;-63
2022/06/29 03:51:01;;;;;;;8.18;2.97;;;;;;;;;;5083116;28;20036;-63
2022/06/29 03:53:27;;;;;;;5.90;2.80;;;;;;;;;;5063686;28;20036;-63
2022/06/29 03:55:56;;;;;;;7.63;2.60;;;;;;;;;;5098022;27;20495;-63
2022/06/29 03:58:23;;;;;;;6.78;2.58;;;;;;;;;;5081573;28;20040;-63
2022/06/29 04:00:49;;;;;;;8.27;3.13;;;;;;;;;;5081798;28;20058;-64
2022/06/29 04:03:16;;;;;;;6.15;2.53;;;;;;;;;;5082793;28;20138;-64
2022/06/29 04:05:43;;;;;;;7.65;3.15;;;;;;;;;;5082926;28;20116;-63
2022/06/29 04:08:10;;;;;;;7.50;3.30;;;;;;;;;;5082972;28;20919;-63
2022/06/29 04:10:37;;;;;;;7.55;3.15;;;;;;;;;;5080829;28;20097;-63
2022/06/29 04:13:04;;;;;;;10.43;3.50;;;;;;;;;;5082790;28;20066;-62
2022/06/29 04:15:30;;;;;;;5.80;3.10;;;;;;;;;;5082831;28;20043;-63
2022/06/29 04:17:57;;;;;;;10.63;4.47;;;;;;;;;;5082187;28;20047;-60
2022/06/29 04:23:09;;;;;;;6.20;3.67;;;;;;;;;;5083099;28;20069;-62
2022/06/29 04:25:36;;;;;;;9.60;3.90;;;;;;;;;;5080605;28;20043;-63
2022/06/29 04:28:02;;;;;;;9.00;4.07;;;;;;;;;;5082026;28;20040;-62
2022/06/29 04:30:29;;;;;;;10.65;3.92;;;;;;;;;;5079912;28;20057;-62
2022/06/29 04:32:56;;;;;;;10.75;4.05;;;;;;;;;;5082629;28;20032;-62
2022/06/29 04:35:22;;;;;;;11.95;4.43;;;;;;;;;;5081690;28;20542;-62
2022/06/29 04:37:49;;;;;;;8.50;4.03;;;;;;;;;;5083256;27;20663;-63
2022/06/29 04:40:16;;;;;;;13.32;4.10;;;;;;;;;;5082082;28;20046;-60
2022/06/29 04:42:42;;;;;;;7.70;3.92;;;;;;;;;;5080485;28;20047;-61
2022/06/29 04:46:19;;;;;;;6.93;3.60;;;;;;;;;;5081311;28;20031;-60
2022/06/29 04:47:59;;;;;;;8.48;3.58;;;;;;;;;;5082198;28;20036;-62
2022/06/29 04:50:26;;;;;;;8.13;4.15;;;;;;;;;;5081854;28;20039;-62
2022/06/29 04:52:53;;;;;;;9.30;3.63;;;;;;;;;;5082312;28;20043;-62
2022/06/29 04:55:20;;;;;;;9.63;3.70;;;;;;;;;;5081671;28;20078;-62
2022/06/29 04:57:46;;;;;;;7.47;3.58;;;;;;;;;;5082858;27;20183;-62
2022/06/29 05:00:13;;;;;;;6.82;3.00;;;;;;;;;;5083664;28;20411;-60
2022/06/29 05:02:40;;;;;;;7.40;2.83;;;;;;;;;;5081878;28;20064;-63
2022/06/29 05:05:07;;;;;;;5.00;2.40;;;;;;;;;;5083375;28;20396;-61
2022/06/29 05:07:33;;;;;;;5.93;2.60;;;;;;;;;;5082930;28;20051;-60
2022/06/29 05:10:00;;;;;;;5.07;1.85;;;;;;;;;;5082328;28;20504;-63
2022/06/29 05:12:27;;;;;;;5.57;2.35;;;;;;;;;;5082232;28;20052;-64
2022/06/29 05:14:53;;;;;;;6.03;1.80;;;;;;;;;;5084602;28;20051;-62
2022/06/29 05:17:20;;;;;;;3.55;1.55;;;;;;;;;;5082899;28;20036;-62
2022/06/29 05:19:47;;;;;;;5.43;1.90;;;;;;;;;;5083466;28;20044;-61
2022/06/29 05:22:13;;;;;;;7.57;2.17;;;;;;;;;;5082227;28;20055;-62
2022/06/29 05:24:40;;;;;;;8.93;2.67;;;;;;;;;;5082963;28;20051;-62
2022/06/29 05:27:07;;;;;;;6.85;2.53;;;;;;;;;;5082303;28;20050;-62
2022/06/29 05:29:33;;;;;;;8.27;2.95;;;;;;;;;;5087851;28;20893;-61
2022/06/29 05:32:00;;;;;;;6.40;3.30;;;;;;;;;;5102410;28;20051;-62
2022/06/29 05:34:27;;;;;;;5.95;3.20;;;;;;;;;;5102626;28;20381;-61
2022/06/29 05:36:53;;;;;;;9.02;3.45;;;;;;;;;;5101337;27;20750;-61
2022/06/29 05:39:20;;;;;;;8.15;3.25;;;;;;;;;;5100841;28;20553;-62
2022/06/29 05:41:46;;;;;;;4.68;2.70;;;;;;;;;;5098554;28;20518;-62
2022/06/29 05:44:14;;;;;;;6.00;2.92;;;;;;;;;;5103567;27;20051;-62
2022/06/29 05:46:41;;;;;;;5.35;2.88;;;;;;;;;;5088075;27;20041;-61
2022/06/29 05:49:08;;;;;;;7.72;2.75;;;;;;;;;;5106737;27;20031;-61
2022/06/29 05:51:34;;;;;;;6.82;2.33;;;;;;;;;;5105612;27;20097;-62
2022/06/29 05:54:01;;;;;;;4.93;2.35;;;;;;;;;;5088181;27;20047;-61
2022/06/29 05:56:28;;;;;;;4.95;1.92;;;;;;;;;;5103012;27;20046;-60
2022/06/29 05:58:54;;;;;;;6.68;2.03;;;;;;;;;;5104607;27;20058;-62
2022/06/29 06:01:21;;;;;;;3.58;1.55;;;;;;;;;;5089460;27;20044;-62
2022/06/29 06:03:48;;;;;;;6.35;1.45;;;;;;;;;;5105102;27;20039;-62
2022/06/29 06:06:14;;;;;;;3.92;1.50;;;;;;;;;;5105697;27;20047;-61
2022/06/29 06:08:41;;;;;;;4.07;1.33;;;;;;;;;;5105253;27;20047;-62
2022/06/29 06:11:08;;;;;;;4.05;1.60;;;;;;;;;;5105148;27;21813;-62
2022/06/29 06:13:34;;;;;;;3.58;1.50;;;;;;;;;;5104559;27;20046;-62
2022/06/29 06:16:01;;;;;;;4.53;1.60;;;;;;;;;;5106493;27;20038;-62
2022/06/29 06:18:28;;;;;;;4.75;1.60;;;;;;;;;;5105636;27;20039;-62
2022/06/29 06:20:54;;;;;;;3.97;1.48;;;;;;;;;;5105333;27;20070;-62
2022/06/29 06:23:21;;;;;;;4.53;1.88;;;;;;;;;;5106493;27;20035;-61
2022/06/29 06:25:48;;;;;;;4.47;1.80;;;;;;;;;;5086522;28;20046;-62
2022/06/29 06:28:15;;;;;;;3.75;1.60;;;;;;;;;;5105801;27;20075;-62
2022/06/29 06:30:41;;;;;;;4.88;1.80;;;;;;;;;;5104036;27;20047;-60
2022/06/29 06:33:08;;;;;;;4.28;1.90;;;;;;;;;;5105825;27;20080;-61
2022/06/29 06:35:34;;;;;;;4.03;1.80;;;;;;;;;;5104524;27;20043;-62
2022/06/29 06:38:01;;;;;;;4.78;1.90;;;;;;;;;;5105906;27;20040;-62
2022/06/29 06:43:13;;;;;;;3.97;1.88;;;;;;;;;;5105588;27;20461;-62
2022/06/29 06:45:42;;;;;;;4.18;2.10;;;;;;;;;;5103861;27;20043;-62
2022/06/29 06:48:09;;;;;;;6.25;1.98;;;;;;;;;;5106728;27;20508;-62
2022/06/29 06:50:35;;;;;;;9.10;1.85;;;;;;;;;;5104652;27;20087;-62
2022/06/29 06:53:02;;;;;;;3.55;1.70;;;;;;;;;;5106243;27;20476;-61
2022/06/29 06:55:29;;;;;;;5.35;2.08;;;;;;;;;;5104657;27;20064;-63
2022/06/29 06:57:56;;;;;;;6.97;1.80;;;;;;;;;;5106064;27;20043;-63
2022/06/29 07:00:22;;;;;;;5.35;1.77;;;;;;;;;;5104248;27;20074;-63
2022/06/29 07:02:49;;;;;;;5.00;1.88;;;;;;;;;;5105631;27;20046;-62
2022/06/29 07:05:17;;;;;;;5.20;1.80;;;;;;;;;;5104411;27;20080;-62
2022/06/29 07:07:44;;;;;;;5.45;2.10;;;;;;;;;;5104943;27;20044;-63
2022/06/29 07:10:10;;;;;;;4.15;2.00;;;;;;;;;;5104735;27;20032;-62
2022/06/29 07:12:37;;;;;;;4.20;1.95;;;;;;;;;;5104403;27;20084;-63
2022/06/29 07:15:05;;;;;;;5.70;2.00;;;;;;;;;;5105454;27;20035;-63
2022/06/29 07:17:31;;;;;;;4.40;2.00;;;;;;;;;;5104573;27;20032;-63
2022/06/29 07:19:58;;;;;;;6.47;2.10;;;;;;;;;;5105078;27;20047;-62
2022/06/29 07:22:25;;;;;;;4.57;1.80;;;;;;;;;;5103571;27;20085;-63
2022/06/29 07:24:51;;;;;;;4.38;1.70;;;;;;;;;;5104805;27;20039;-64
2022/06/29 07:27:18;;;;;;;3.95;1.80;;;;;;;;;;5106050;27;20050;-63
2022/06/29 07:29:45;;;;;;;6.30;1.75;;;;;;;;;;5103140;27;21545;-64
2022/06/29 07:32:11;;;;;;;4.65;1.80;;;;;;;;;;5104692;27;20148;-63
2022/06/29 07:34:38;;;;;;;5.28;1.88;;;;;;;;;;5104690;27;20092;-64
2022/06/29 07:37:05;;;;;;;3.97;1.70;;;;;;;;;;5104777;27;20039;-63
2022/06/29 07:39:31;;;;;;;4.38;2.10;;;;;;;;;;5103194;27;20047;-63
2022/06/29 07:41:58;;;;;;;4.18;1.33;;;;;;;;;;5104759;27;20511;-63
2022/06/29 07:44:25;;;;;;;4.25;1.80;;;;;;;;;;5104655;27;20389;-64
2022/06/29 07:46:52;;;;;;;7.68;1.95;;;;;;;;;;5105721;27;20075;-63
2022/06/29 07:49:18;;;;;;;3.97;1.38;;;;;;;;;;5104556;27;20044;-63
2022/06/29 07:51:45;;;;;;;4.82;1.40;;;;;;;;;;5103553;27;20042;-63
2022/06/29 07:54:12;;;;;;;3.53;1.50;;;;;;;;;;5104852;27;20075;-63
2022/06/29 07:56:38;;;;;;;4.18;1.50;;;;;;;;;;5102988;27;20032;-63
2022/06/29 07:59:05;;;;;;;3.20;1.42;;;;;;;;;;5102644;27;20031;-64
2022/06/29 08:01:31;;;;;;;4.57;1.60;;;;;;;;;;5102515;27;20264;-64
2022/06/29 08:03:58;;;;;;;4.18;1.42;;;;;;;;;;5103149;27;20035;-64
2022/06/29 08:06:25;;;;;;;3.40;1.52;;;;;;;;;;5103769;27;20035;-64
2022/06/29 08:08:53;;;;;;;4.05;1.40;;;;;;;;;;5103610;27;20054;-64
2022/06/29 08:11:19;;;;;;;4.03;1.52;;;;;;;;;;5103734;27;20126;-63
2022/06/29 08:13:46;;;;;;;3.88;1.48;;;;;;;;;;5103275;27;20035;-63
2022/06/29 08:16:13;;;;;;;3.45;1.40;;;;;;;;;;5103864;27;20354;-63
2022/06/29 08:18:39;;;;;;;3.78;1.08;;;;;;;;;;5103536;27;20038;-63
2022/06/29 08:21:06;;;;;;;3.13;1.05;;;;;;;;;;5103875;27;20062;-63
2022/06/29 08:23:33;;;;;;;3.50;1.20;;;;;;;;;;5103266;27;20066;-63
2022/06/29 08:26:00;;;;;;;3.15;1.27;;;;;;;;;;5103806;27;20038;-63
2022/06/29 08:28:27;;;;;;;3.22;1.05;;;;;;;;;;5103971;27;20749;-63
2022/06/29 08:30:54;;;;;;;3.45;1.13;;;;;;;;;;5101276;27;20139;-61
2022/06/29 08:33:21;;;;;;;3.30;1.10;;;;;;;;;;5102460;27;21092;-63
2022/06/29 08:35:48;;;;;;;4.78;1.30;;;;;;;;;;5104232;27;20047;-63
2022/06/29 08:38:15;;;;;;;3.67;1.23;;;;;;;;;;5103560;27;20067;-62
2022/06/29 08:40:44;;;;;;;4.85;1.02;;;;;;;;;;5103569;27;20047;-63
2022/06/29 08:43:15;;;;;;;2.75;1.00;;;;;;;;;;5104495;27;20036;-63
2022/06/29 08:45:45;;;;;;;3.20;1.10;;;;;;;;;;5068473;28;20170;-62
2022/06/29 08:48:13;;;;;;;2.70;1.20;;;;;;;;;;5099206;27;20039;-62
2022/06/29 08:50:44;;;;;;;2.95;1.23;;;;;;;;;;5092322;27;20155;-63
2022/06/29 08:53:17;;;;;;;2.97;1.20;;;;;;;;;;5103402;28;20027;-63
2022/06/29 08:55:52;;;;;;;4.18;1.15;;;;;;;;;;5103135;27;20043;-68
2022/06/29 08:58:20;;;;;;;4.47;1.20;;;;;;;;;;5104459;27;20755;-68
2022/06/29 09:00:49;;;;;;;3.80;1.20;;;;;;;;;;5101068;28;20595;-67
2022/06/29 09:03:17;;;;;;;2.95;1.15;;;;;;;;;;5105629;27;20035;-67
2022/06/29 09:05:56;;;;;;;3.15;1.15;;;;;;;;;;5102223;27;20039;-67
2022/06/29 09:08:23;;;;;;;3.40;1.30;;;;;;;;;;5095305;28;20036;-68
2022/06/29 09:10:50;;;;;;;3.17;1.30;;;;;;;;;;5075659;28;20389;-67
2022/06/29 09:13:21;;;;;;;3.92;1.40;;;;;;;;;;5069259;28;20047;-69
2022/06/29 09:15:48;;;;;;;4.80;1.13;;;;;;;;;;5073122;28;20036;-67
2022/06/29 09:18:24;;;;;;;3.15;1.30;;;;;;;;;;5083293;28;20055;-67
2022/06/29 09:20:55;;;;;;;3.22;1.30;;;;;;;;;;5086300;28;20044;-67
2022/06/29 09:23:26;;;;;;;4.57;1.50;;;;;;;;;;5090798;27;20051;-67
2022/06/29 09:25:53;;;;;;;2.90;1.20;;;;;;;;;;5108515;27;20046;-67
2022/06/29 09:28:27;;;;;;;3.33;1.40;;;;;;;;;;5110646;27;20036;-68
2022/06/29 09:30:54;;;;;;;4.75;1.35;;;;;;;;;;5086566;28;20101;-67
2022/06/29 09:33:25;;;;;;;3.50;1.20;;;;;;;;;;5090001;28;20044;-67
2022/06/29 09:36:13;;;;;;;3.60;1.45;;;;;;;;;;5085055;28;20047;-67
2022/06/29 09:38:40;;;;;;;3.42;1.13;;;;;;;;;;5094438;27;20028;-67
2022/06/29 09:41:11;;;;;;;3.05;1.30;;;;;;;;;;5086471;28;20047;-67
2022/06/29 09:43:39;;;;;;;4.88;1.67;;;;;;;;;;5063422;27;20298;-67
2022/06/29 09:46:06;;;;;;;3.45;1.30;;;;;;;;;;5094228;27;20047;-67
2022/06/29 09:48:34;;;;;;;3.70;1.58;;;;;;;;;;5087302;27;20063;-67
2022/06/29 09:51:01;;;;;;;3.33;1.25;;;;;;;;;;5087409;28;20445;-66
2022/06/29 09:53:34;;;;;;;4.53;1.50;;;;;;;;;;5088462;27;20582;-67
2022/06/29 09:56:03;;;;;;;3.10;1.38;;;;;;;;;;5090133;27;20053;-68
2022/06/29 09:58:36;;;;;;;4.40;1.63;;;;;;;;;;5091601;27;20035;-67
2022/06/29 10:03:50;;;;;;;3.60;1.48;;;;;;;;;;5087713;28;20047;-67
2022/06/29 10:06:18;;;;;;;5.15;1.83;;;;;;;;;;5088374;28;20515;-67
2022/06/29 10:08:46;;;;;;;4.13;1.33;;;;;;;;;;5088658;28;20044;-67
2022/06/29 10:14:09;;;;;;;3.35;1.45;;;;;;;;;;5092802;27;20139;-67
2022/06/29 10:16:48;;;;;;;4.35;1.70;;;;;;;;;;5079384;28;20511;-67
2022/06/29 10:19:25;;;;;;;3.38;1.50;;;;;;;;;;5088166;28;20043;-68
2022/06/29 10:21:52;;;;;;;4.07;1.60;;;;;;;;;;5092873;27;20043;-68
2022/06/29 10:24:19;;;;;;;4.85;1.60;;;;;;;;;;5092874;27;20039;-68
2022/06/29 10:26:47;;;;;;;4.07;1.55;;;;;;;;;;5086942;28;20443;-68
2022/06/29 10:29:13;;;;;;;3.78;1.48;;;;;;;;;;5091360;27;20072;-68
2022/06/29 10:31:59;;;;;;;4.25;1.50;;;;;;;;;;5106744;27;20039;-67
2022/06/29 10:34:40;;;;;;;4.78;1.70;;;;;;;;;;5108272;27;20074;-68
2022/06/29 10:37:09;;;;;;;4.30;1.60;;;;;;;;;;5108906;27;20570;-68
2022/06/29 10:39:36;;;;;;;3.95;1.90;;;;;;;;;;5109065;27;20123;-67
2022/06/29 10:45:02;;;;;;;4.97;1.70;;;;;;;;;;5106788;27;20054;-67
2022/06/29 10:47:30;;;;;;;4.82;1.65;;;;;;;;;;5106608;27;20040;-67
2022/06/29 10:50:23;;;;;;;3.45;1.75;;;;;;;;;;5108713;27;20038;-67
2022/06/29 10:52:54;;;;;;;3.93;1.73;;;;;;;;;;5107429;27;20044;-67
2022/06/29 10:55:21;;;;;;;5.03;1.92;;;;;;;;;;5072689;28;20796;-67
2022/06/29 10:57:48;;;;;;;4.35;1.48;;;;;;;;;;5107813;27;20039;-67
2022/06/29 11:00:18;;;;;;;3.53;1.60;;;;;;;;;;5107390;27;20047;-68
2022/06/29 11:02:45;;;;;;;4.78;1.88;;;;;;;;;;5108134;27;20975;-66
2022/06/29 11:05:12;;;;;;;5.03;1.48;;;;;;;;;;5109397;27;20036;-66
2022/06/29 11:13:27;;;;;;;6.13;1.58;;;;;;;;;;5107920;27;20973;-68
2022/06/29 11:15:55;;;;;;;3.35;1.50;;;;;;;;;;5107917;27;20192;-67
2022/06/29 11:18:23;;;;;;;7.68;1.60;;;;;;;;;;5086594;27;20044;-68
2022/06/29 11:20:51;;;;;;;4.40;1.30;;;;;;;;;;5085799;27;20120;-66
2022/06/29 11:23:18;;;;;;;3.90;1.38;;;;;;;;;;5107116;27;20169;-66
2022/06/29 11:25:47;;;;;;;4.60;1.73;;;;;;;;;;5107081;27;20063;-67
2022/06/29 11:28:18;;;;;;;4.85;1.67;;;;;;;;;;5108267;27;20130;-67
2022/06/29 11:31:05;;;;;;;4.80;1.65;;;;;;;;;;5077018;27;20080;-69
2022/06/29 11:33:33;;;;;;;3.83;1.60;;;;;;;;;;5050441;28;20397;-67
2022/06/29 11:36:06;;;;;;;6.63;1.65;;;;;;;;;;5051433;28;20439;-69
2022/06/29 11:38:34;;;;;;;4.28;1.75;;;;;;;;;;5050488;28;20160;-66
2022/06/29 11:41:12;;;;;;;5.00;1.65;;;;;;;;;;5049078;28;20068;-67
2022/06/29 11:43:38;;;;;;;;;;;;;;;;;;5052056;28;20669;-67
2022/06/29 11:46:05;;;;;;;3.53;1.55;;;;;;;;;;5057252;28;19924;-68
2022/06/29 11:49:33;;;;;;;4.45;1.58;;;;;;;;;;5049883;28;20413;-68
2022/06/29 11:51:20;;;;;;;4.30;1.98;;;;;;;;;;5050492;28;20123;-67
2022/06/29 11:53:50;;;;;;;4.93;1.60;;;;;;;;;;5071247;28;20062;-68
2022/06/29 11:56:18;;;;;;;3.35;1.60;;;;;;;;;;5068582;28;20036;-68
2022/06/29 11:58:53;;;;;;;8.85;2.30;;;;;;;;;;5053215;28;20029;-68
2022/06/29 12:01:24;;;;;;;4.75;1.95;;;;;;;;;;5060908;28;20513;-68
2022/06/29 12:03:52;;;;;;;4.97;1.90;;;;;;;;;;5062637;28;20101;-68
2022/06/29 12:06:19;;;;;;;3.95;1.67;;;;;;;;;;5051903;28;20041;-68
2022/06/29 12:08:46;;;;;;;4.47;1.75;;;;;;;;;;5053079;28;20045;-68
2022/06/29 12:11:13;;;;;;;3.90;1.70;;;;;;;;;;5053046;28;20124;-68
2022/06/29 12:13:39;;;;;;;3.97;1.80;;;;;;;;;;5043778;28;20041;-67
2022/06/29 12:16:06;;;;;;;6.22;2.10;;;;;;;;;;5053745;28;20404;-69
2022/06/29 12:18:33;;;;;;;5.10;1.90;;;;;;;;;;5058208;28;20033;-68
2022/06/29 12:20:59;;;;;;;4.88;2.08;;;;;;;;;;5053265;28;20464;-67
2022/06/29 12:23:28;;;;;;;4.32;1.85;;;;;;;;;;5054319;28;20045;-65
2022/06/29 12:25:55;;;;;;;3.78;1.80;;;;;;;;;;5062454;28;20086;-66
2022/06/29 12:28:22;;;;;;;3.35;1.30;;;;;;;;;;5052044;28;20218;-66
2022/06/29 12:30:49;;;;;;;4.70;1.50;;;;;;;;;;5051695;28;20127;-65
2022/06/29 12:33:16;;;;;;;3.38;1.45;;;;;;;;;;5052282;28;21016;-66
2022/06/29 12:35:43;;;;;;;3.20;1.40;;;;;;;;;;5051141;28;20029;-64
2022/06/29 12:38:09;;;;;;;4.80;1.30;;;;;;;;;;5051128;28;20041;-64
2022/06/29 12:40:36;;;;;;;18.88;9.90;;;;;;;;;;5047433;28;20052;-68
2022/06/29 12:43:03;;;;;;;11.93;5.35;;;;;;;;;;5053802;28;20049;-68
2022/06/29 12:45:31;;;;;;;7.03;2.35;;;;;;;;;;5045664;28;20041;-66
2022/06/29 12:47:58;;;;;;;4.35;1.80;;;;;;;;;;5049161;28;20033;-66
2022/06/29 12:50:25;;;;;;;4.03;1.67;;;;;;;;;;5047349;28;20045;-65
2022/06/29 12:52:52;;;;;;;4.80;1.48;;;;;;;;;;5047181;28;20075;-66
2022/06/29 12:55:21;;;;;;;6.70;1.60;;;;;;;;;;5047999;28;20049;-66
2022/06/29 12:57:48;;;;;;;3.97;1.48;;;;;;;;;;5047735;28;20255;-66
2022/06/29 13:00:16;;;;;;;4.78;1.55;;;;;;;;;;5048144;28;20048;-66
2022/06/29 13:02:42;;;;;;;5.63;1.70;;;;;;;;;;5050397;28;20100;-66
2022/06/29 13:05:10;;;;;;;4.75;1.70;;;;;;;;;;5052285;28;20037;-66
2022/06/29 13:07:37;;;;;;;4.07;1.67;;;;;;;;;;5037136;28;20041;-65
2022/06/29 13:10:06;;;;;;;4.00;1.63;;;;;;;;;;5051967;28;20041;-66
2022/06/29 13:12:33;;;;;;;3.67;1.42;;;;;;;;;;5052428;28;20043;-67
2022/06/29 13:15:00;;;;;;;3.80;1.50;;;;;;;;;;5052458;28;20599;-67
2022/06/29 13:17:26;;;;;;;4.22;1.23;;;;;;;;;;5048525;28;20040;-66
2022/06/29 13:19:55;;;;;;;3.45;1.70;;;;;;;;;;5049027;28;20398;-65
2022/06/29 13:22:23;;;;;;;3.42;1.52;;;;;;;;;;5049457;28;20036;-66
2022/06/29 13:24:50;;;;;;;4.80;1.30;;;;;;;;;;5086795;28;20079;-64
2022/06/29 13:27:17;;;;;;;3.13;1.15;;;;;;;;;;5084901;28;20042;-66
2022/06/29 13:29:43;;;;;;;5.95;1.40;;;;;;;;;;5089342;28;20054;-66
2022/06/29 13:32:10;;;;;;;4.78;1.13;;;;;;;;;;5084110;28;20490;-67
2022/06/29 13:34:37;;;;;;;3.30;1.10;;;;;;;;;;5081268;28;20056;-66
2022/06/29 13:37:04;;;;;;;5.80;1.30;;;;;;;;;;5083133;28;20028;-67
2022/06/29 13:39:31;;;;;;;2.85;1.02;;;;;;;;;;5083430;28;20031;-66
2022/06/29 13:42:00;;;;;;;2.50;0.70;;;;;;;;;;5049669;28;20096;-67
2022/06/29 13:44:27;;;;;;;3.20;1.00;;;;;;;;;;5096845;28;20096;-67
2022/06/29 13:46:54;;;;;;;3.40;0.95;;;;;;;;;;5079412;28;20071;-67
2022/06/29 13:49:21;;;;;;;2.60;0.90;;;;;;;;;;5073197;28;20050;-66
2022/06/29 13:51:47;;;;;;;10.00;3.90;;;;;;;;;;5086324;28;20093;-65
2022/06/29 13:54:14;;;;;;;2.92;1.00;;;;;;;;;;5064419;28;20050;-68
2022/06/29 13:56:41;;;;;;;2.95;0.90;;;;;;;;;;5066359;28;20036;-68
2022/06/29 13:59:08;;;;;;;2.75;0.80;;;;;;;;;;5070582;28;20942;-68
2022/06/29 14:01:35;;;;;;;2.65;0.93;;;;;;;;;;5071916;28;20150;-68
2022/06/29 14:04:02;;;;;;;4.25;1.00;;;;;;;;;;5052859;28;20513;-70
2022/06/29 14:06:29;;;;;;;3.70;1.20;;;;;;;;;;5072977;28;20036;-68
2022/06/29 14:08:55;;;;;;;4.05;0.90;;;;;;;;;;5077771;28;20549;-67
2022/06/29 14:11:22;;;;;;;3.72;1.00;;;;;;;;;;5093649;28;21847;-67
2022/06/29 14:13:52;;;;;;;2.88;0.93;;;;;;;;;;5092145;28;20099;-67
2022/06/29 14:16:19;;;;;;;3.15;0.80;;;;;;;;;;5093876;28;20044;-66
2022/06/29 14:18:45;;;;;;;5.35;0.98;;;;;;;;;;5090379;28;20103;-67
2022/06/29 14:21:12;;;;;;;2.55;0.77;;;;;;;;;;5087093;28;20906;-68
2022/06/29 14:23:39;;;;;;;2.22;0.70;;;;;;;;;;5075289;28;20046;-65
2022/06/29 14:26:09;;;;;;;3.92;0.90;;;;;;;;;;5088138;28;20092;-69
2022/06/29 14:28:41;;;;;;;2.40;0.60;;;;;;;;;;5086463;28;20117;-69
2022/06/29 14:31:09;;;;;;;2.92;0.82;;;;;;;;;;5086494;28;20055;-68
2022/06/29 14:33:38;;;;;;;3.05;0.80;;;;;;;;;;5066851;27;20962;-68
2022/06/29 14:36:05;;;;;;;2.33;0.80;;;;;;;;;;5090671;27;20047;-66
2022/06/29 14:38:32;;;;;;;3.47;0.85;;;;;;;;;;5085391;28;20044;-68
2022/06/29 14:40:58;;;;;;;4.10;0.80;;;;;;;;;;5085133;28;20464;-66
2022/06/29 14:43:25;;;;;;;3.75;1.00;;;;;;;;;;5083445;28;20514;-67
2022/06/29 14:45:52;;;;;;;2.38;0.70;;;;;;;;;;5087124;28;20043;-68
2022/06/29 14:48:19;;;;;;;1.70;0.60;;;;;;;;;;5085564;28;20138;-68
2022/06/29 14:50:46;;;;;;;3.85;0.90;;;;;;;;;;5099484;27;20074;-68
2022/06/29 14:53:13;;;;;;;1.92;0.70;;;;;;;;;;5086356;28;20040;-68
2022/06/29 14:55:39;;;;;;;2.42;0.70;;;;;;;;;;5085641;28;20040;-68
2022/06/29 14:58:06;;;;;;;2.67;0.60;;;;;;;;;;5086615;28;20036;-68
2022/06/29 15:00:33;;;;;;;3.88;0.70;;;;;;;;;;5085053;28;20692;-68
2022/06/29 15:02:59;;;;;;;3.03;0.60;;;;;;;;;;5085724;28;20040;-68
2022/06/29 15:05:26;;;;;;;2.25;0.70;;;;;;;;;;5084250;28;20036;-66
2022/06/29 15:07:53;;;;;;;2.90;0.70;;;;;;;;;;5085375;28;20108;-65